Time;durP1;ratioP1;P1;durP2;ratioP2;P2;SDS_P1;SDS_P2;PMS_P1;PMS_P2;Temp;Humidity;BMP_temperature;BMP_pressure;BME280_temperature;BME280_humidity;BME280_pressure;Samples;Min_cycle;Max_cycle;Signal;HPM_P1;HPM_P2
2023/07/28 00:00:48;;;;;;;2.78;2.58;;;;;;;17.37;100.00;97831.75;4124648;28;20226;-45
2023/07/28 00:02:50;;;;;;;4.05;3.65;;;;;;;17.38;100.00;97830.66;4125427;28;20217;-44
2023/07/28 00:04:52;;;;;;;2.90;2.70;;;;;;;17.38;100.00;97844.50;4125832;28;21075;-45
2023/07/28 00:06:53;;;;;;;3.50;3.30;;;;;;;17.30;100.00;97832.16;4125216;28;20684;-45
2023/07/28 00:08:55;;;;;;;3.35;2.92;;;;;;;17.32;100.00;97834.63;4129993;28;20667;-45
2023/07/28 00:10:57;;;;;;;3.03;2.83;;;;;;;17.31;100.00;97836.56;4128579;28;20233;-44
2023/07/28 00:12:59;;;;;;;3.70;3.17;;;;;;;17.36;100.00;97835.63;4145650;28;20205;-45
2023/07/28 00:15:02;;;;;;;3.58;3.33;;;;;;;17.34;100.00;97840.66;4112705;28;20649;-46
2023/07/28 00:17:04;;;;;;;2.75;2.55;;;;;;;17.41;100.00;97841.09;4133295;28;20245;-45
2023/07/28 00:19:06;;;;;;;3.53;3.22;;;;;;;17.34;100.00;97829.59;4129117;28;20233;-45
2023/07/28 00:21:07;;;;;;;10.25;2.90;;;;;;;17.32;100.00;97832.66;4129272;28;20315;-45
2023/07/28 00:23:09;;;;;;;2.85;2.58;;;;;;;17.40;100.00;97822.88;4129127;28;20256;-45
2023/07/28 00:25:13;;;;;;;2.78;2.58;;;;;;;17.28;100.00;97826.13;4133129;28;20292;-43
2023/07/28 00:27:15;;;;;;;4.00;3.60;;;;;;;17.30;100.00;97818.34;4121277;28;20246;-45
2023/07/28 00:29:17;;;;;;;3.20;3.00;;;;;;;17.26;100.00;97819.28;4132879;28;20210;-45
2023/07/28 00:31:19;;;;;;;3.83;3.47;;;;;;;17.26;100.00;97827.56;4127599;28;20202;-44
2023/07/28 00:33:20;;;;;;;4.43;4.03;;;;;;;17.28;100.00;97825.31;4129132;28;20582;-45
2023/07/28 00:35:22;;;;;;;4.18;3.88;;;;;;;17.25;100.00;97821.22;4128765;28;20260;-45
2023/07/28 00:37:24;;;;;;;4.55;4.15;;;;;;;17.25;100.00;97817.63;4130186;28;20218;-45
2023/07/28 00:39:26;;;;;;;4.22;3.92;;;;;;;17.24;100.00;97813.22;4127436;28;20234;-45
2023/07/28 00:41:27;;;;;;;4.20;3.90;;;;;;;17.27;100.00;97818.13;4128153;28;20712;-44
2023/07/28 00:43:29;;;;;;;4.43;4.03;;;;;;;17.22;100.00;97818.25;4128459;28;20213;-44
2023/07/28 00:45:32;;;;;;;4.28;3.95;;;;;;;17.28;100.00;97809.53;4127674;28;20251;-45
2023/07/28 00:47:35;;;;;;;3.90;3.60;;;;;;;17.25;100.00;97815.69;4143704;28;20213;-45
2023/07/28 00:49:38;;;;;;;4.90;4.60;;;;;;;17.29;100.00;97807.56;4126222;28;20280;-44
2023/07/28 00:51:40;;;;;;;4.38;3.97;;;;;;;17.31;100.00;97813.63;4111721;28;20295;-45
2023/07/28 00:53:43;;;;;;;3.92;3.58;;;;;;;17.25;100.00;97812.13;4111512;28;20210;-45
2023/07/28 00:55:44;;;;;;;4.15;3.85;;;;;;;17.33;100.00;97808.59;4143144;28;20209;-45
2023/07/28 00:57:46;;;;;;;3.95;3.65;;;;;;;17.26;100.00;97810.97;4127650;28;20214;-46
2023/07/28 00:59:48;;;;;;;4.60;4.20;;;;;;;17.21;100.00;97819.38;4125848;28;20244;-45
2023/07/28 01:01:52;;;;;;;4.18;3.75;;;;;;;17.18;100.00;97818.03;4109515;28;20297;-44
2023/07/28 01:03:55;;;;;;;4.03;3.72;;;;;;;17.22;100.00;97815.47;4129027;28;20210;-45
2023/07/28 01:06:11;;;;;;;3.70;3.47;;;;;;;17.22;100.00;97818.25;4118899;28;20265;-46
2023/07/28 01:08:36;;;;;;;3.88;3.58;;;;;;;17.16;100.00;97822.25;4119736;28;20203;-46
2023/07/28 01:10:38;;;;;;;4.88;4.57;;;;;;;17.17;100.00;97815.59;4127440;28;20234;-46
2023/07/28 01:12:40;;;;;;;3.92;3.60;;;;;;;17.16;100.00;97816.72;4128210;28;20268;-46
2023/07/28 01:14:43;;;;;;;4.45;3.72;;;;;;;17.15;100.00;97815.09;4129455;28;20214;-45
2023/07/28 01:16:45;;;;;;;4.28;3.97;;;;;;;17.16;100.00;97822.25;4126333;28;20214;-45
2023/07/28 01:18:47;;;;;;;4.38;3.97;;;;;;;17.17;100.00;97823.88;4111162;28;20675;-46
2023/07/28 01:20:55;;;;;;;5.43;4.18;;;;;;;17.20;100.00;97812.22;4110854;28;20223;-46
2023/07/28 01:23:20;;;;;;;4.30;3.97;;;;;;;17.07;100.00;97818.56;4111764;28;20917;-45
2023/07/28 01:25:36;;;;;;;3.95;3.65;;;;;;;17.13;100.00;97818.16;4141873;28;20244;-46
2023/07/28 01:27:42;;;;;;;4.72;4.20;;;;;;;17.21;100.00;97802.78;4111040;28;20266;-45
2023/07/28 01:29:44;;;;;;;6.60;4.63;;;;;;;17.12;100.00;97804.66;4126486;28;20226;-45
2023/07/28 01:31:47;;;;;;;5.57;5.15;;;;;;;17.08;100.00;97804.44;4142468;28;20213;-46
2023/07/28 01:33:49;;;;;;;4.95;4.57;;;;;;;17.04;100.00;97802.59;4127717;28;20217;-46
2023/07/28 01:35:51;;;;;;;5.75;5.35;;;;;;;17.04;100.00;97808.13;4126604;28;20210;-46
2023/07/28 01:37:53;;;;;;;5.45;5.03;;;;;;;17.06;100.00;97797.59;4111535;28;20222;-45
2023/07/28 01:39:57;;;;;;;4.68;4.25;;;;;;;17.02;100.00;97800.16;4142263;28;20288;-45
2023/07/28 01:41:59;;;;;;;5.07;4.68;;;;;;;17.10;100.00;97804.13;4143083;28;20239;-46
2023/07/28 01:44:00;;;;;;;4.22;3.85;;;;;;;17.08;100.00;97792.56;4125250;28;20275;-46
2023/07/28 01:46:02;;;;;;;4.35;4.03;;;;;;;17.02;100.00;97799.31;4110763;28;20619;-45
2023/07/28 01:48:05;;;;;;;4.05;3.85;;;;;;;17.03;100.00;97795.44;4122597;28;21023;-44
2023/07/28 01:50:07;;;;;;;3.97;3.65;;;;;;;17.07;100.00;97796.47;4128525;28;20236;-46
2023/07/28 01:52:09;;;;;;;3.50;3.20;;;;;;;17.13;100.00;97795.22;4128699;28;20253;-45
2023/07/28 01:54:11;;;;;;;5.63;3.20;;;;;;;17.05;100.00;97793.19;4127790;28;20202;-46
2023/07/28 01:56:12;;;;;;;4.22;3.08;;;;;;;17.11;100.00;97803.03;4130990;28;20213;-45
2023/07/28 01:58:14;;;;;;;3.40;3.13;;;;;;;17.09;100.00;97802.50;4128440;28;20222;-46
2023/07/28 02:00:16;;;;;;;3.00;2.80;;;;;;;17.09;100.00;97796.97;4127200;28;20276;-46
2023/07/28 02:02:18;;;;;;;2.95;2.65;;;;;;;17.11;100.00;97794.72;4128468;28;20206;-45
2023/07/28 02:04:20;;;;;;;2.92;2.72;;;;;;;17.16;100.00;97798.19;4130264;28;20214;-45
2023/07/28 02:06:21;;;;;;;3.67;3.28;;;;;;;17.15;100.00;97799.31;4118309;28;20651;-46
2023/07/28 02:08:23;;;;;;;2.97;2.78;;;;;;;17.16;100.00;97800.13;4126143;28;20276;-45
2023/07/28 02:10:29;;;;;;;2.20;2.03;;;;;;;17.10;100.00;97795.81;4126533;28;20249;-45
2023/07/28 02:12:30;;;;;;;2.00;1.90;;;;;;;17.10;100.00;97796.66;4143493;28;20224;-46
2023/07/28 02:14:32;;;;;;;2.20;2.10;;;;;;;17.05;100.00;97787.66;4130372;28;20241;-45
2023/07/28 02:16:34;;;;;;;1.67;1.58;;;;;;;17.10;100.00;97779.25;4127973;28;20300;-46
2023/07/28 02:18:36;;;;;;;2.50;2.28;;;;;;;17.05;100.00;97782.13;4128787;28;20214;-46
2023/07/28 02:20:38;;;;;;;2.60;1.90;;;;;;;17.07;100.00;97777.09;4127131;28;20245;-45
2023/07/28 02:22:41;;;;;;;2.55;1.80;;;;;;;17.04;100.00;97786.00;4125269;28;20220;-45
2023/07/28 02:24:43;;;;;;;1.58;1.42;;;;;;;17.10;100.00;97779.25;4142440;28;20659;-47
2023/07/28 02:26:44;;;;;;;1.95;1.70;;;;;;;17.09;100.00;97794.19;4126801;28;20771;-46
2023/07/28 02:28:46;;;;;;;1.98;1.73;;;;;;;17.09;100.00;97783.13;4121545;28;20202;-47
2023/07/28 02:30:48;;;;;;;1.73;1.63;;;;;;;17.14;100.00;97780.28;4124264;28;20245;-46
2023/07/28 02:32:50;;;;;;;1.45;1.30;;;;;;;17.07;100.00;97782.63;4124939;28;20245;-46
2023/07/28 02:34:52;;;;;;;1.40;1.25;;;;;;;17.15;100.00;97787.44;4113953;28;20237;-46
2023/07/28 02:36:53;;;;;;;1.10;1.00;;;;;;;17.09;100.00;97785.91;4125529;28;20208;-45
2023/07/28 02:38:55;;;;;;;2.80;1.50;;;;;;;17.11;100.00;97781.69;4124743;28;20210;-46
2023/07/28 02:40:57;;;;;;;1.77;1.63;;;;;;;17.15;100.00;97785.50;4126589;28;20744;-46
2023/07/28 02:42:59;;;;;;;2.25;1.63;;;;;;;17.14;100.00;97785.81;4126002;28;21156;-45
2023/07/28 02:45:02;;;;;;;1.55;1.15;;;;;;;17.13;100.00;97792.47;4128520;28;20219;-45
2023/07/28 02:47:04;;;;;;;1.25;1.10;;;;;;;17.11;100.00;97792.75;4142191;28;20256;-46
2023/07/28 02:49:05;;;;;;;1.33;1.23;;;;;;;17.11;100.00;97797.50;4142290;28;20210;-45
2023/07/28 02:51:07;;;;;;;0.98;0.98;;;;;;;17.12;100.00;97801.88;4126008;28;20237;-45
2023/07/28 02:53:09;;;;;;;1.10;1.10;;;;;;;17.10;100.00;97798.59;4128515;28;20210;-45
2023/07/28 02:55:11;;;;;;;1.10;1.00;;;;;;;17.13;100.00;97798.00;4126951;28;20751;-45
2023/07/28 02:57:12;;;;;;;1.20;1.02;;;;;;;17.18;100.00;97801.47;4126631;28;20248;-45
2023/07/28 02:59:14;;;;;;;1.27;0.80;;;;;;;17.18;100.00;97806.19;4126682;28;20587;-45
2023/07/28 03:01:17;;;;;;;1.00;0.68;;;;;;;17.15;100.00;97801.25;4126490;28;20230;-45
2023/07/28 03:03:21;;;;;;;0.93;0.93;;;;;;;17.15;100.00;97806.78;4118685;28;20213;-46
2023/07/28 03:05:23;;;;;;;0.80;0.80;;;;;;;17.20;100.00;97801.16;4119543;28;23545;-46
2023/07/28 03:07:25;;;;;;;0.85;0.80;;;;;;;17.21;100.00;97803.63;4126297;28;20300;-45
2023/07/28 03:09:27;;;;;;;0.93;0.90;;;;;;;17.15;100.00;97804.03;4109650;28;20695;-46
2023/07/28 03:11:28;;;;;;;1.60;1.00;;;;;;;17.14;100.00;97805.16;4129981;28;20212;-46
2023/07/28 03:13:30;;;;;;;1.38;1.35;;;;;;;17.15;100.00;97804.03;4129550;28;20691;-47
2023/07/28 03:15:32;;;;;;;0.93;0.85;;;;;;;17.16;100.00;97794.59;4127574;28;20207;-46
2023/07/28 03:17:33;;;;;;;0.95;0.88;;;;;;;17.18;100.00;97797.88;4125168;28;20213;-46
2023/07/28 03:19:35;;;;;;;1.00;0.90;;;;;;;17.12;100.00;97793.59;4125518;28;20206;-45
2023/07/28 03:21:37;;;;;;;1.52;0.98;;;;;;;17.18;100.00;97792.34;4123980;28;20210;-45
2023/07/28 03:23:41;;;;;;;0.60;0.60;;;;;;;17.18;100.00;97786.81;4126196;28;20213;-46
2023/07/28 03:25:42;;;;;;;0.85;0.85;;;;;;;17.15;100.00;97784.66;4125367;28;20297;-45
2023/07/28 03:27:45;;;;;;;0.80;0.80;;;;;;;17.18;100.00;97792.34;4125247;28;20762;-45
2023/07/28 03:29:46;;;;;;;0.80;0.80;;;;;;;17.22;100.00;97793.34;4125185;28;20250;-46
2023/07/28 03:31:48;;;;;;;4.60;0.80;;;;;;;17.24;100.00;97791.91;4124811;28;20210;-46
2023/07/28 03:33:50;;;;;;;1.35;0.63;;;;;;;17.18;100.00;97792.34;4141888;28;20209;-46
2023/07/28 03:35:52;;;;;;;0.68;0.63;;;;;;;17.12;100.00;97804.66;4108419;28;20215;-46
2023/07/28 03:37:53;;;;;;;0.88;0.50;;;;;;;17.21;100.00;97805.56;4142266;28;20216;-46
2023/07/28 03:39:55;;;;;;;0.93;0.90;;;;;;;17.14;100.00;97810.69;4130317;28;20237;-46
2023/07/28 03:41:57;;;;;;;4.63;0.70;;;;;;;17.16;100.00;97800.97;4135561;28;20228;-46
2023/07/28 03:43:59;;;;;;;0.75;0.60;;;;;;;17.17;100.00;97808.13;4119236;28;20632;-47
2023/07/28 03:46:01;;;;;;;0.60;0.60;;;;;;;17.16;100.00;97805.66;4105743;28;20747;-45
2023/07/28 03:48:03;;;;;;;0.68;0.52;;;;;;;17.14;100.00;97810.69;4122096;28;20238;-46
2023/07/28 03:50:05;;;;;;;0.70;0.70;;;;;;;17.16;100.00;97811.19;4103791;28;20227;-46
2023/07/28 03:52:07;;;;;;;0.50;0.50;;;;;;;17.19;100.00;97813.34;4119293;28;21057;-46
2023/07/28 03:54:08;;;;;;;1.15;0.80;;;;;;;17.16;100.00;97816.72;4118247;28;20218;-45
2023/07/28 03:56:10;;;;;;;1.08;0.52;;;;;;;17.16;100.00;97805.66;4121302;28;20210;-46
2023/07/28 03:58:12;;;;;;;1.55;0.70;;;;;;;17.15;100.00;97812.31;4136324;28;20221;-46
2023/07/28 04:00:14;;;;;;;0.65;0.63;;;;;;;17.17;100.00;97818.34;4120516;28;20705;-46
2023/07/28 04:02:16;;;;;;;0.57;0.50;;;;;;;17.12;100.00;97810.97;4124761;28;20229;-46
2023/07/28 04:04:18;;;;;;;0.60;0.60;;;;;;;17.16;100.00;97816.72;4124107;28;20218;-45
2023/07/28 04:06:42;;;;;;;1.83;0.60;;;;;;;17.16;100.00;97827.78;4123883;28;20216;-46
2023/07/28 04:08:45;;;;;;;0.65;0.60;;;;;;;17.17;100.00;97829.41;4120584;28;20214;-46
2023/07/28 04:10:47;;;;;;;2.08;0.57;;;;;;;17.25;100.00;97832.28;4117766;28;20300;-46
2023/07/28 04:12:48;;;;;;;1.00;0.82;;;;;;;17.21;100.00;97828.50;4122924;28;20309;-46
2023/07/28 04:14:50;;;;;;;0.50;0.50;;;;;;;17.23;100.00;97840.06;4122752;28;20210;-46
2023/07/28 04:16:52;;;;;;;1.80;0.70;;;;;;;17.24;100.00;97838.09;4120094;28;20608;-45
2023/07/28 04:18:54;;;;;;;0.82;0.60;;;;;;;17.22;100.00;97838.44;4116937;28;20249;-45
2023/07/28 04:20:55;;;;;;;0.93;0.90;;;;;;;17.23;100.00;97839.22;4122464;28;20879;-46
2023/07/28 04:22:57;;;;;;;1.02;0.75;;;;;;;17.21;100.00;97847.03;4121269;28;21142;-45
2023/07/28 04:24:59;;;;;;;0.65;0.65;;;;;;;17.26;100.00;97846.94;4119679;28;20733;-46
2023/07/28 04:27:01;;;;;;;1.10;0.70;;;;;;;17.21;100.00;97845.09;4121339;28;20226;-45
2023/07/28 04:29:03;;;;;;;0.80;0.80;;;;;;;17.23;100.00;97850.28;4117819;28;20205;-45
2023/07/28 04:31:05;;;;;;;0.55;0.50;;;;;;;17.25;100.00;97851.63;4134857;28;20235;-45
2023/07/28 04:33:07;;;;;;;1.90;0.93;;;;;;;17.24;100.00;97852.75;4121257;28;20241;-45
2023/07/28 04:35:08;;;;;;;0.73;0.73;;;;;;;17.23;100.00;97850.28;4123161;28;20261;-45
2023/07/28 04:37:10;;;;;;;0.70;0.60;;;;;;;17.23;100.00;97850.28;4117153;28;20210;-46
2023/07/28 04:39:12;;;;;;;0.90;0.90;;;;;;;17.27;100.00;97851.31;4122053;28;20209;-45
2023/07/28 04:41:14;;;;;;;1.75;0.80;;;;;;;17.28;100.00;97858.50;4122377;28;20304;-45
2023/07/28 04:43:15;;;;;;;0.80;0.70;;;;;;;17.27;100.00;97862.38;4123974;28;20201;-45
2023/07/28 04:45:17;;;;;;;0.70;0.70;;;;;;;17.24;100.00;97866.59;4123141;28;20213;-45
2023/07/28 04:47:19;;;;;;;0.90;0.90;;;;;;;17.27;100.00;97862.38;4123988;28;20638;-46
2023/07/28 04:49:21;;;;;;;0.75;0.75;;;;;;;17.22;100.00;97865.25;4121604;28;20686;-46
2023/07/28 04:51:23;;;;;;;0.70;0.70;;;;;;;17.30;100.00;97868.13;4137068;28;20660;-45
2023/07/28 04:53:25;;;;;;;2.15;0.60;;;;;;;17.26;100.00;97871.81;4121991;28;20206;-46
2023/07/28 04:55:26;;;;;;;13.77;1.20;;;;;;;17.22;100.00;97876.31;4125370;28;20206;-46
2023/07/28 04:57:28;;;;;;;2.22;0.88;;;;;;;17.24;100.00;97874.06;4125869;28;20213;-46
2023/07/28 04:59:30;;;;;;;1.13;0.70;;;;;;;17.27;100.00;97870.69;4126156;28;20210;-46
2023/07/28 05:01:33;;;;;;;0.60;0.60;;;;;;;17.29;100.00;97872.03;4124160;28;20285;-46
2023/07/28 05:03:35;;;;;;;1.10;0.95;;;;;;;17.27;100.00;97873.44;4120676;28;20211;-46
2023/07/28 05:05:37;;;;;;;0.88;0.88;;;;;;;17.28;100.00;97878.69;4125345;28;20224;-45
2023/07/28 05:07:39;;;;;;;0.98;0.90;;;;;;;17.32;100.00;97870.59;4124596;28;20207;-46
2023/07/28 05:09:41;;;;;;;2.63;1.10;;;;;;;17.32;100.00;97876.13;4125607;28;20236;-46
2023/07/28 05:11:42;;;;;;;1.00;1.00;;;;;;;17.28;100.00;97877.84;4126851;28;20249;-45
2023/07/28 05:13:47;;;;;;;2.10;1.02;;;;;;;17.29;100.00;97876.72;4141303;28;20256;-45
2023/07/28 05:15:49;;;;;;;0.75;0.73;;;;;;;17.29;100.00;97876.72;4122412;28;20202;-45
2023/07/28 05:17:51;;;;;;;1.20;1.10;;;;;;;17.29;100.00;97879.47;4123813;28;20289;-45
2023/07/28 05:19:52;;;;;;;1.77;0.98;;;;;;;17.28;100.00;97873.16;4123633;28;20324;-45
2023/07/28 05:21:54;;;;;;;2.05;0.95;;;;;;;17.35;100.00;97875.50;4122221;28;20649;-47
2023/07/28 05:23:56;;;;;;;1.23;1.13;;;;;;;17.35;100.00;97881.03;4109592;28;20772;-45
2023/07/28 05:25:58;;;;;;;1.83;1.02;;;;;;;17.33;100.00;97875.00;4120316;28;20332;-44
2023/07/28 05:28:00;;;;;;;3.53;1.10;;;;;;;17.42;100.00;97874.00;4124697;28;20688;-46
2023/07/28 05:30:02;;;;;;;1.90;0.98;;;;;;;17.44;100.00;97879.22;4124251;28;20308;-46
2023/07/28 05:32:04;;;;;;;2.28;1.35;;;;;;;17.39;100.00;97882.88;4108949;28;20218;-46
2023/07/28 05:34:06;;;;;;;1.00;0.90;;;;;;;17.40;100.00;97880.94;4128337;28;20265;-45
2023/07/28 05:36:07;;;;;;;1.70;1.58;;;;;;;17.37;100.00;97887.09;4123381;28;20210;-45
2023/07/28 05:38:09;;;;;;;2.25;1.00;;;;;;;17.36;100.00;97882.66;4109854;28;20309;-47
2023/07/28 05:40:12;;;;;;;1.55;1.45;;;;;;;17.43;100.00;97881.16;4126635;28;20222;-45
2023/07/28 05:42:14;;;;;;;4.03;1.50;;;;;;;17.42;100.00;97876.75;4124741;28;20242;-46
2023/07/28 05:44:19;;;;;;;12.52;1.30;;;;;;;17.41;100.00;97874.28;4126700;28;20273;-46
2023/07/28 05:46:21;;;;;;;6.03;1.90;;;;;;;17.42;100.00;97875.91;4108897;28;20223;-46
2023/07/28 05:48:23;;;;;;;1.48;1.38;;;;;;;17.47;100.00;97873.06;4107893;28;20210;-45
2023/07/28 05:50:24;;;;;;;1.27;1.02;;;;;;;17.44;100.00;97879.22;4125098;28;20233;-46
2023/07/28 05:52:26;;;;;;;1.38;1.25;;;;;;;17.50;100.00;97881.56;4121974;28;20720;-45
2023/07/28 05:54:28;;;;;;;1.15;1.05;;;;;;;17.49;100.00;97881.84;4119978;28;20206;-46
2023/07/28 05:56:30;;;;;;;1.65;1.15;;;;;;;17.49;100.00;97881.84;4126211;28;20806;-45
2023/07/28 05:58:33;;;;;;;1.77;1.38;;;;;;;17.46;100.00;97886.06;4124864;28;20241;-46
2023/07/28 06:00:40;;;;;;;2.00;1.17;;;;;;;17.49;100.00;97887.38;4107180;28;20681;-48
2023/07/28 06:02:42;;;;;;;1.45;1.35;;;;;;;17.52;100.00;97893.13;4123231;28;20194;-45
2023/07/28 06:04:44;;;;;;;3.17;1.55;;;;;;;17.53;100.00;97888.41;4122962;28;20673;-46
2023/07/28 06:06:46;;;;;;;4.40;1.30;;;;;;;17.53;100.00;97889.22;4123999;28;20216;-46
2023/07/28 06:08:48;;;;;;;1.52;1.40;;;;;;;17.51;100.00;97893.44;4124100;28;20604;-45
2023/07/28 06:10:50;;;;;;;2.67;1.27;;;;;;;17.59;100.00;97899.03;4107869;28;20745;-47
2023/07/28 06:12:51;;;;;;;1.80;1.55;;;;;;;17.57;100.00;97897.72;4123695;28;20210;-46
2023/07/28 06:14:53;;;;;;;1.60;1.50;;;;;;;17.57;100.00;97897.72;4121935;28;20236;-45
2023/07/28 06:16:55;;;;;;;1.70;1.60;;;;;;;17.61;100.00;97904.28;4123981;28;20233;-46
2023/07/28 06:18:57;;;;;;;1.92;1.20;;;;;;;17.61;100.00;97909.81;4124752;28;20253;-45
2023/07/28 06:20:58;;;;;;;2.72;1.30;;;;;;;17.67;100.00;97916.88;4124188;28;20226;-45
2023/07/28 06:23:01;;;;;;;2.15;1.30;;;;;;;17.68;100.00;97918.50;4108820;28;20709;-46
2023/07/28 06:25:03;;;;;;;1.38;1.27;;;;;;;17.62;100.00;97919.75;4107628;28;20227;-45
2023/07/28 06:27:08;;;;;;;2.45;1.48;;;;;;;17.62;100.00;97919.75;4122692;28;20214;-46
2023/07/28 06:29:10;;;;;;;1.50;1.27;;;;;;;17.68;100.00;97929.59;4122158;28;20217;-46
2023/07/28 06:31:11;;;;;;;1.25;1.05;;;;;;;17.63;100.00;97924.97;4120295;28;20226;-46
2023/07/28 06:33:13;;;;;;;1.90;1.33;;;;;;;17.62;100.00;97925.28;4125339;28;20224;-46
2023/07/28 06:35:15;;;;;;;1.38;1.10;;;;;;;17.67;100.00;97922.41;4124997;28;20214;-46
2023/07/28 06:37:17;;;;;;;5.60;1.60;;;;;;;17.68;100.00;97929.59;4124608;28;20214;-46
2023/07/28 06:39:19;;;;;;;2.35;1.63;;;;;;;17.73;100.00;97933.03;4138930;28;20675;-46
2023/07/28 06:41:22;;;;;;;2.83;1.20;;;;;;;17.77;100.00;97933.25;4122010;28;20273;-45
2023/07/28 06:43:23;;;;;;;1.42;1.17;;;;;;;17.83;100.00;97937.53;4141673;28;20210;-45
2023/07/28 06:45:25;;;;;;;1.55;1.15;;;;;;;17.93;100.00;97934.56;4124096;28;20226;-45
2023/07/28 06:47:27;;;;;;;1.23;1.13;;;;;;;17.98;100.00;97937.22;4126660;28;20210;-45
2023/07/28 06:49:29;;;;;;;2.55;1.80;;;;;;;18.02;100.00;97943.75;4140807;28;20288;-45
2023/07/28 06:51:30;;;;;;;1.45;1.17;;;;;;;17.94;100.00;97944.50;4125744;28;20253;-46
2023/07/28 06:53:34;;;;;;;1.10;1.10;;;;;;;17.96;100.00;97953.31;4125053;28;20197;-45
2023/07/28 06:55:38;;;;;;;1.20;1.05;;;;;;;18.07;100.00;97949.19;4121637;28;20215;-45
2023/07/28 06:57:40;;;;;;;2.03;1.45;;;;;;;18.08;100.00;97942.50;4138186;28;20216;-46
2023/07/28 06:59:42;;;;;;;1.38;1.27;;;;;;;18.10;100.00;97951.31;4135823;28;20232;-45
2023/07/28 07:01:44;;;;;;;1.30;1.20;;;;;;;18.18;100.00;97951.41;4119397;28;20284;-45
2023/07/28 07:03:46;;;;;;;2.22;1.50;;;;;;;18.22;100.00;97940.53;4120939;28;20691;-45
2023/07/28 07:05:48;;;;;;;1.52;1.42;;;;;;;18.36;100.00;97935.78;4118018;28;20221;-45
2023/07/28 07:07:50;;;;;;;1.67;1.33;;;;;;;18.40;100.00;97939.56;4124596;28;20556;-45
2023/07/28 07:09:52;;;;;;;3.33;1.30;;;;;;;18.36;100.00;97946.84;4104889;28;20321;-46
2023/07/28 07:11:54;;;;;;;1.70;1.60;;;;;;;18.40;100.00;97948.72;4121807;28;20253;-45
2023/07/28 07:13:56;;;;;;;1.33;1.23;;;;;;;18.42;100.00;97951.97;4106759;28;20211;-47
2023/07/28 07:15:58;;;;;;;1.67;1.52;;;;;;;18.58;100.00;97958.78;4119878;28;20206;-45
2023/07/28 07:17:59;;;;;;;1.48;1.38;;;;;;;18.60;100.00;97955.69;4121806;28;20293;-46
2023/07/28 07:20:01;;;;;;;1.55;1.45;;;;;;;18.66;100.00;97958.00;4093093;28;20588;-45
2023/07/28 07:22:03;;;;;;;4.78;1.42;;;;;;;18.75;100.00;97953.34;4125029;28;20635;-45
2023/07/28 07:24:05;;;;;;;5.00;1.88;;;;;;;18.67;100.00;97954.13;4124640;28;20210;-45
2023/07/28 07:26:07;;;;;;;1.88;1.77;;;;;;;18.73;100.00;97955.59;4141011;28;20208;-45
2023/07/28 07:28:09;;;;;;;2.20;1.80;;;;;;;18.87;100.00;97952.78;4123664;28;20206;-45
2023/07/28 07:30:11;;;;;;;2.42;2.22;;;;;;;18.82;100.00;97955.66;4139407;28;20229;-45
2023/07/28 07:32:15;;;;;;;2.45;1.67;;;;;;;18.88;100.00;97955.25;4124077;28;20202;-46
2023/07/28 07:34:17;;;;;;;2.17;1.98;;;;;;;18.82;100.00;97950.13;4121278;28;20216;-45
2023/07/28 07:36:22;;;;;;;2.10;1.88;;;;;;;18.92;100.00;97956.22;4122942;28;20206;-46
2023/07/28 07:38:24;;;;;;;3.95;2.28;;;;;;;19.09;100.00;97967.44;4123189;28;20205;-48
2023/07/28 07:40:26;;;;;;;1.83;1.60;;;;;;;19.08;100.00;97960.25;4123755;28;20221;-45
2023/07/28 07:42:45;;;;;;;1.90;1.38;;;;;;;19.05;100.00;97952.53;4108047;28;20234;-48
2023/07/28 07:44:47;;;;;;;2.05;1.38;;;;;;;18.92;100.00;97958.19;4119725;28;20626;-45
2023/07/28 07:46:50;;;;;;;1.27;1.17;;;;;;;18.92;100.00;97966.50;4111573;28;20581;-45
2023/07/28 07:48:51;;;;;;;1.55;1.00;;;;;;;18.95;100.00;97971.41;4141452;28;20217;-45
2023/07/28 07:50:53;;;;;;;3.67;1.52;;;;;;;18.97;100.00;97963.63;4125044;28;20620;-45
2023/07/28 07:52:55;;;;;;;1.45;1.33;;;;;;;18.96;100.00;97962.78;4125191;28;20205;-47
2023/07/28 07:54:57;;;;;;;1.55;1.40;;;;;;;18.90;100.00;97963.22;4108538;28;22208;-45
2023/07/28 07:56:59;;;;;;;2.47;1.35;;;;;;;19.33;100.00;97962.38;4120218;28;20709;-47
2023/07/28 07:59:01;;;;;;;2.92;1.45;;;;;;;19.75;100.00;97960.88;4126850;28;20214;-46
2023/07/28 08:01:04;;;;;;;2.22;1.35;;;;;;;19.94;100.00;97961.41;4108436;28;20230;-48
2023/07/28 08:03:06;;;;;;;1.77;1.20;;;;;;;19.74;100.00;97962.00;4126904;28;20216;-47
2023/07/28 08:05:08;;;;;;;1.33;1.23;;;;;;;20.01;100.00;97968.13;4126603;28;20202;-48
2023/07/28 08:07:10;;;;;;;1.30;1.20;;;;;;;20.17;100.00;97968.53;4124572;28;20293;-46
2023/07/28 08:09:11;;;;;;;2.15;1.13;;;;;;;20.58;100.00;97975.22;4123678;28;20202;-45
2023/07/28 08:11:13;;;;;;;2.30;0.93;;;;;;;20.25;100.00;97965.72;4107392;28;20257;-49
2023/07/28 08:13:15;;;;;;;1.80;1.15;;;;;;;20.11;100.00;97975.38;4125415;28;20217;-46
2023/07/28 08:15:17;;;;;;;1.30;1.00;;;;;;;20.11;100.00;97972.59;4122775;28;20672;-46
2023/07/28 08:17:19;;;;;;;2.58;1.20;;;;;;;20.11;100.00;97980.94;4125066;28;20213;-46
2023/07/28 08:19:21;;;;;;;1.55;0.82;;;;;;;20.00;100.00;97982.34;4126350;28;20220;-45
2023/07/28 08:21:23;;;;;;;1.38;1.10;;;;;;;19.96;100.00;97981.34;4109146;28;20653;-47
2023/07/28 08:23:24;;;;;;;1.45;1.00;;;;;;;19.88;100.00;97979.38;4123072;28;20613;-49
2023/07/28 08:25:29;;;;;;;1.05;0.95;;;;;;;19.78;100.00;97974.13;4124557;28;20704;-46
2023/07/28 08:27:31;;;;;;;1.13;1.02;;;;;;;19.88;100.00;97973.81;4123297;28;20206;-47
2023/07/28 08:29:33;;;;;;;1.60;1.15;;;;;;;19.76;100.00;97984.72;4126499;28;20217;-46
2023/07/28 08:31:35;;;;;;;1.30;1.20;;;;;;;19.67;100.00;97989.44;4129457;28;20296;-48
2023/07/28 08:33:38;;;;;;;1.50;1.40;;;;;;;19.67;100.00;97989.44;4112679;28;20640;-48
2023/07/28 08:35:39;;;;;;;1.63;1.10;;;;;;;19.67;100.00;97989.44;4126916;28;20202;-45
2023/07/28 08:37:41;;;;;;;1.58;1.00;;;;;;;19.66;100.00;97985.03;4111222;28;20214;-45
2023/07/28 08:39:43;;;;;;;1.42;0.90;;;;;;;19.60;100.00;97989.06;4127026;28;20280;-46
2023/07/28 08:41:45;;;;;;;1.30;1.20;;;;;;;19.54;100.00;97990.34;4125657;28;20260;-46
2023/07/28 08:43:47;;;;;;;1.25;1.17;;;;;;;19.71;100.00;97996.00;4126550;28;20271;-46
2023/07/28 08:45:49;;;;;;;2.13;1.05;;;;;;;19.59;100.00;97998.56;4126059;28;20225;-45
2023/07/28 08:47:52;;;;;;;2.75;1.40;;;;;;;19.44;100.00;97998.97;4128012;28;20213;-45
2023/07/28 08:49:54;;;;;;;1.38;1.27;;;;;;;19.41;100.00;98002.38;4119537;28;20227;-47
2023/07/28 08:52:00;;;;;;;2.72;1.40;;;;;;;19.45;100.00;98008.94;4128195;28;20260;-45
2023/07/28 08:54:02;;;;;;;1.25;1.10;;;;;;;19.64;100.00;98001.19;4110659;28;20203;-47
2023/07/28 08:56:04;;;;;;;1.13;1.02;;;;;;;19.78;100.00;97994.34;4123980;28;20268;-47
2023/07/28 08:58:34;;;;;;;1.65;1.38;;;;;;;19.96;100.00;97998.00;4126197;28;20294;-46
2023/07/28 09:00:37;;;;;;;2.15;1.10;;;;;;;20.38;100.00;97994.53;4123661;28;20226;-47
2023/07/28 09:02:40;;;;;;;1.40;1.30;;;;;;;20.50;100.00;97992.72;4126835;28;20230;-46
2023/07/28 09:04:47;;;;;;;1.15;1.05;;;;;;;20.63;100.00;97999.25;4144114;28;20694;-45
2023/07/28 09:06:52;;;;;;;2.47;1.10;;;;;;;20.87;100.00;97991.25;4127277;28;20224;-46
2023/07/28 09:08:56;;;;;;;0.98;0.93;;;;;;;20.70;100.00;97991.28;4123703;28;20199;-46
2023/07/28 09:11:03;;;;;;;1.52;1.42;;;;;;;20.31;100.00;97994.19;4140891;28;20324;-48
2023/07/28 09:13:09;;;;;;;3.50;1.52;;;;;;;20.31;100.00;97999.75;4125988;28;20202;-46
2023/07/28 09:15:11;;;;;;;1.02;1.02;;;;;;;20.12;100.00;97996.47;4121370;23;20237;-46
2023/07/28 09:17:13;;;;;;;1.38;1.27;;;;;;;20.20;100.00;97992.88;4137994;28;20221;-46
2023/07/28 09:19:15;;;;;;;1.75;1.50;;;;;;;20.26;100.00;97997.13;4119475;28;20217;-47
2023/07/28 09:21:20;;;;;;;1.83;1.20;;;;;;;20.23;100.00;97989.41;4133764;28;20291;-48
2023/07/28 09:23:29;;;;;;;1.60;1.50;;;;;;;20.11;100.00;97992.03;4120402;28;20634;-48
2023/07/28 09:25:35;;;;;;;1.30;1.15;;;;;;;20.12;100.00;97990.91;4117157;28;20210;-47
2023/07/28 09:27:38;;;;;;;1.42;1.05;;;;;;;20.11;100.00;97994.81;4120153;28;20794;-47
2023/07/28 09:29:40;;;;;;;1.48;1.20;;;;;;;20.13;100.00;97992.53;4121028;28;20906;-50